Time;durP1;ratioP1;P1;durP2;ratioP2;P2;SDS_P1;SDS_P2;PMS_P1;PMS_P2;Temp;Humidity;BMP_temperature;BMP_pressure;BME280_temperature;BME280_humidity;BME280_pressure;Samples;Min_cycle;Max_cycle;Signal;HPM_P1;HPM_P2
2021/03/29 00:00:09;;;;;;;3.20;2.13;;;2.60;99.90;;;;;;2073332;28;20692;-64
2021/03/29 00:01:10;;;;;;;4.68;1.63;;;2.60;99.90;;;;;;2073248;28;20205;-65
2021/03/29 00:02:11;;;;;;;4.90;1.70;;;2.60;99.90;;;;;;2073923;28;20217;-65
2021/03/29 00:03:12;;;;;;;3.50;2.13;;;2.60;99.90;;;;;;2073574;28;20212;-65
2021/03/29 00:04:13;;;;;;;2.47;1.60;;;2.60;99.90;;;;;;2073693;28;20560;-65
2021/03/29 00:05:15;;;;;;;5.25;2.00;;;2.60;99.90;;;;;;2073363;28;20244;-65
2021/03/29 00:06:17;;;;;;;2.35;1.33;;;2.60;99.90;;;;;;2073390;28;20300;-65
2021/03/29 00:07:20;;;;;;;2.85;1.70;;;2.60;99.90;;;;;;2073867;28;20192;-64
2021/03/29 00:08:27;;;;;;;5.50;2.00;;;2.60;99.90;;;;;;2073379;28;20747;-65
2021/03/29 00:09:30;;;;;;;2.50;1.60;;;2.50;99.90;;;;;;2066177;28;20634;-64
2021/03/29 00:10:32;;;;;;;4.85;2.13;;;2.50;99.90;;;;;;2073455;28;20180;-64
2021/03/29 00:11:34;;;;;;;2.28;1.60;;;2.50;99.90;;;;;;2073268;28;20193;-65
2021/03/29 00:12:38;;;;;;;3.00;1.70;;;2.50;99.90;;;;;;2073289;28;20178;-64
2021/03/29 00:13:39;;;;;;;3.60;1.70;;;2.40;99.90;;;;;;2065393;28;20697;-65
2021/03/29 00:14:43;;;;;;;2.83;1.75;;;2.40;99.90;;;;;;2065334;28;20189;-64
2021/03/29 00:15:52;;;;;;;4.60;2.33;;;2.40;99.90;;;;;;2065413;28;20183;-64
2021/03/29 00:16:53;;;;;;;4.32;1.70;;;2.50;99.90;;;;;;2066174;28;20194;-64
2021/03/29 00:17:54;;;;;;;2.33;1.70;;;2.50;99.90;;;;;;2065030;28;20736;-64
2021/03/29 00:18:55;;;;;;;2.15;1.60;;;2.50;99.90;;;;;;2073190;28;20186;-65
2021/03/29 00:19:57;;;;;;;2.65;1.55;;;2.40;99.90;;;;;;2073771;28;20182;-65
2021/03/29 00:21:04;;;;;;;2.55;1.60;;;2.40;99.90;;;;;;2073069;28;20186;-64
2021/03/29 00:22:06;;;;;;;3.75;1.67;;;2.40;99.90;;;;;;2073341;28;20235;-64
2021/03/29 00:23:08;;;;;;;3.80;1.52;;;2.40;99.90;;;;;;2073011;28;20665;-64
2021/03/29 00:24:10;;;;;;;2.45;1.58;;;2.50;99.90;;;;;;2072960;28;20177;-64
2021/03/29 00:25:20;;;;;;;3.17;1.60;;;2.50;99.90;;;;;;2073696;28;20189;-65
2021/03/29 00:26:21;;;;;;;2.17;1.42;;;2.60;99.90;;;;;;2072714;28;20216;-65
2021/03/29 00:27:21;;;;;;;3.03;1.48;;;2.50;99.90;;;;;;2073116;28;20237;-65
2021/03/29 00:28:22;;;;;;;4.33;1.90;;;2.60;99.90;;;;;;2073312;28;20209;-64
2021/03/29 00:29:23;;;;;;;2.35;1.90;;;2.60;99.90;;;;;;2073589;28;20188;-64
2021/03/29 00:30:30;;;;;;;4.63;2.00;;;2.60;99.90;;;;;;2073338;28;20641;-65
2021/03/29 00:31:32;;;;;;;2.47;1.60;;;2.70;99.90;;;;;;2072215;28;20243;-64
2021/03/29 00:32:33;;;;;;;2.20;1.83;;;2.60;99.90;;;;;;2072787;28;20568;-64
2021/03/29 00:33:36;;;;;;;3.50;2.13;;;2.60;99.90;;;;;;2072887;28;20266;-64
2021/03/29 00:34:37;;;;;;;3.75;1.92;;;2.50;99.90;;;;;;2072940;28;20184;-65
2021/03/29 00:35:42;;;;;;;2.85;1.60;;;2.60;99.90;;;;;;2072892;28;20174;-65
2021/03/29 00:36:43;;;;;;;3.58;1.60;;;2.50;99.90;;;;;;2072691;28;20575;-64
2021/03/29 00:37:49;;;;;;;2.50;1.40;;;2.60;99.90;;;;;;2072728;28;20181;-64
2021/03/29 00:38:52;;;;;;;1.85;1.40;;;2.60;99.90;;;;;;2072824;28;20197;-64
2021/03/29 00:39:54;;;;;;;2.83;1.70;;;2.60;99.90;;;;;;2073336;28;20181;-64
2021/03/29 00:41:00;;;;;;;2.50;1.50;;;2.60;99.90;;;;;;2072030;28;20193;-65
2021/03/29 00:42:01;;;;;;;4.63;1.55;;;2.70;99.90;;;;;;2065219;28;20198;-64
2021/03/29 00:43:15;;;;;;;2.47;1.30;;;2.70;99.90;;;;;;2064914;28;20189;-64
2021/03/29 00:44:19;;;;;;;2.55;1.50;;;2.60;99.90;;;;;;2072919;28;20169;-64
2021/03/29 00:45:20;;;;;;;2.10;1.50;;;2.60;99.90;;;;;;2073310;28;20220;-65
2021/03/29 00:46:22;;;;;;;2.97;1.73;;;2.60;99.90;;;;;;2072604;28;20284;-65
2021/03/29 00:47:23;;;;;;;4.47;1.60;;;2.60;99.90;;;;;;2064485;28;20907;-65
2021/03/29 00:48:27;;;;;;;4.68;1.52;;;2.60;99.90;;;;;;2064517;28;20677;-64
2021/03/29 00:49:28;;;;;;;2.20;1.58;;;2.60;99.90;;;;;;2072961;28;20189;-64
2021/03/29 00:50:32;;;;;;;2.42;1.50;;;2.60;99.90;;;;;;2072910;28;20261;-65
2021/03/29 00:51:35;;;;;;;3.50;1.40;;;2.50;99.90;;;;;;2072152;28;20202;-65
2021/03/29 00:52:37;;;;;;;2.17;1.30;;;2.50;99.90;;;;;;2072572;28;20189;-64
2021/03/29 00:53:44;;;;;;;1.77;1.38;;;2.50;99.90;;;;;;2064811;28;20178;-64
2021/03/29 00:54:46;;;;;;;1.63;1.40;;;2.50;99.90;;;;;;2072921;28;20236;-64
2021/03/29 00:55:49;;;;;;;1.92;1.50;;;2.50;99.90;;;;;;2072663;28;20272;-65
2021/03/29 00:56:51;;;;;;;3.35;1.58;;;2.40;99.90;;;;;;2073135;28;20188;-65
2021/03/29 00:57:53;;;;;;;3.15;1.50;;;2.40;99.90;;;;;;2079410;28;20185;-65
2021/03/29 00:58:55;;;;;;;2.53;1.30;;;2.40;99.90;;;;;;2073096;28;20263;-65
2021/03/29 00:59:56;;;;;;;3.75;1.50;;;2.40;99.90;;;;;;2072741;28;20227;-65
2021/03/29 01:01:10;;;;;;;3.43;1.63;;;2.30;99.90;;;;;;2072225;28;20186;-65
2021/03/29 01:02:11;;;;;;;3.15;1.48;;;2.30;99.90;;;;;;2074515;28;20199;-66
2021/03/29 01:03:21;;;;;;;4.67;1.60;;;2.20;99.90;;;;;;2072662;28;20201;-64
2021/03/29 01:04:22;;;;;;;2.63;1.48;;;2.20;99.90;;;;;;2080872;28;20426;-65
2021/03/29 01:05:23;;;;;;;3.77;1.50;;;2.20;99.90;;;;;;2080872;28;20199;-65
2021/03/29 01:06:29;;;;;;;4.07;1.40;;;2.10;99.90;;;;;;2080752;28;20217;-64
2021/03/29 01:07:30;;;;;;;1.58;1.20;;;2.20;99.90;;;;;;2081530;28;20168;-65
2021/03/29 01:08:33;;;;;;;3.90;1.50;;;2.20;99.90;;;;;;2080876;28;20193;-64
2021/03/29 01:09:34;;;;;;;3.30;1.48;;;2.20;99.90;;;;;;2072874;28;20173;-65
2021/03/29 01:10:35;;;;;;;4.83;1.40;;;2.20;99.90;;;;;;2072809;28;20181;-65
2021/03/29 01:12:05;;;;;;;3.73;1.30;;;2.30;99.90;;;;;;2080272;28;20196;-64
2021/03/29 01:13:12;;;;;;;2.17;1.50;;;2.30;99.90;;;;;;2080754;28;20280;-65
2021/03/29 01:14:25;;;;;;;1.98;1.20;;;2.40;99.90;;;;;;2073151;28;20182;-65
2021/03/29 01:15:26;;;;;;;2.72;1.40;;;2.40;99.90;;;;;;2074644;28;20182;-64
2021/03/29 01:16:34;;;;;;;2.80;1.60;;;2.40;99.90;;;;;;2072499;28;20647;-65
2021/03/29 01:17:39;;;;;;;3.35;1.23;;;2.50;99.90;;;;;;2073834;28;20173;-64
2021/03/29 01:18:44;;;;;;;3.40;1.30;;;2.50;99.90;;;;;;2073154;28;20653;-64
2021/03/29 01:19:58;;;;;;;3.40;1.40;;;2.60;99.90;;;;;;2073116;28;20681;-64
2021/03/29 01:21:46;;;;;;;4.00;1.60;;;2.60;99.90;;;;;;2074023;28;20180;-64
2021/03/29 01:22:51;;;;;;;2.08;1.20;;;2.70;99.90;;;;;;2078923;28;20615;-64
2021/03/29 01:23:59;;;;;;;3.00;1.63;;;2.80;99.90;;;;;;2073238;28;20360;-64
2021/03/29 01:25:13;;;;;;;3.38;1.20;;;2.80;99.90;;;;;;2073536;28;20173;-64
2021/03/29 01:26:35;;;;;;;2.13;1.17;;;2.80;99.90;;;;;;2080834;28;20209;-64
2021/03/29 01:27:51;;;;;;;2.55;1.20;;;2.90;99.90;;;;;;2080993;28;20174;-64
2021/03/29 01:28:51;;;;;;;4.18;1.30;;;3.00;99.90;;;;;;2074655;28;20832;-64
2021/03/29 01:29:53;;;;;;;3.97;1.30;;;3.10;99.90;;;;;;2080774;28;20183;-64
2021/03/29 01:30:54;;;;;;;2.40;1.70;;;3.10;99.90;;;;;;2080009;28;20242;-64
2021/03/29 01:32:00;;;;;;;2.13;1.23;;;3.10;99.90;;;;;;2080786;28;20292;-64
2021/03/29 01:33:02;;;;;;;2.90;1.30;;;3.10;99.90;;;;;;2081456;28;20205;-64
2021/03/29 01:34:05;;;;;;;2.67;1.30;;;3.00;99.90;;;;;;2080829;28;20668;-64
2021/03/29 01:35:14;;;;;;;2.97;1.30;;;3.00;99.90;;;;;;2072816;28;20181;-64
2021/03/29 01:36:15;;;;;;;2.75;1.30;;;3.10;99.90;;;;;;2080571;28;20175;-64
2021/03/29 01:37:16;;;;;;;3.03;1.30;;;3.10;99.90;;;;;;2080543;28;20192;-64
2021/03/29 01:38:18;;;;;;;1.65;1.25;;;3.10;99.90;;;;;;2080619;28;20180;-65
2021/03/29 01:39:19;;;;;;;3.42;1.48;;;3.20;99.90;;;;;;2081378;28;20223;-64
2021/03/29 01:40:21;;;;;;;3.58;1.30;;;3.20;99.90;;;;;;2080599;28;20181;-64
2021/03/29 01:41:23;;;;;;;2.83;1.10;;;3.20;99.90;;;;;;2071614;28;20193;-64
2021/03/29 01:42:24;;;;;;;1.90;1.10;;;3.20;99.90;;;;;;2080611;28;20862;-64
2021/03/29 01:43:27;;;;;;;1.77;1.10;;;3.30;99.90;;;;;;2080797;28;20204;-64
2021/03/29 01:44:29;;;;;;;4.28;1.33;;;3.40;99.90;;;;;;2080880;28;20201;-64
2021/03/29 01:45:30;;;;;;;2.85;1.30;;;3.40;99.90;;;;;;2080506;28;20193;-64
2021/03/29 01:46:31;;;;;;;3.70;1.50;;;3.50;99.90;;;;;;2080661;28;20181;-64
2021/03/29 01:47:32;;;;;;;1.85;1.30;;;3.50;99.60;;;;;;2080240;28;20230;-64
2021/03/29 01:48:33;;;;;;;1.60;1.23;;;3.60;99.40;;;;;;2080694;28;20256;-64
2021/03/29 01:49:35;;;;;;;2.05;1.10;;;3.60;99.30;;;;;;2081192;28;20268;-64
2021/03/29 01:50:42;;;;;;;1.80;1.20;;;3.70;98.40;;;;;;2080636;28;20227;-64
2021/03/29 01:51:43;;;;;;;2.08;1.40;;;3.80;97.50;;;;;;2080086;28;20302;-64
2021/03/29 01:52:44;;;;;;;1.58;1.20;;;3.90;97.50;;;;;;2080540;28;20212;-64
2021/03/29 01:53:46;;;;;;;2.80;1.23;;;3.90;96.90;;;;;;2080527;28;20188;-64
2021/03/29 01:54:47;;;;;;;1.85;1.20;;;4.00;96.30;;;;;;2080489;28;20179;-64
2021/03/29 01:55:48;;;;;;;1.83;1.05;;;4.00;96.70;;;;;;2072508;28;20184;-64
2021/03/29 01:56:49;;;;;;;1.90;1.30;;;4.10;94.80;;;;;;2072426;28;20182;-64
2021/03/29 01:57:50;;;;;;;2.00;1.33;;;4.10;93.70;;;;;;2072362;28;20261;-65
2021/03/29 01:58:51;;;;;;;2.97;1.20;;;4.20;93.70;;;;;;2072544;28;20181;-64
2021/03/29 01:59:52;;;;;;;2.40;1.25;;;4.20;93.60;;;;;;2072274;28;20261;-64
2021/03/29 02:01:01;;;;;;;2.88;1.25;;;4.30;93.10;;;;;;2080021;28;20211;-64
2021/03/29 02:02:04;;;;;;;1.40;1.10;;;4.30;92.90;;;;;;2080996;28;20286;-64
2021/03/29 02:03:06;;;;;;;1.58;1.00;;;4.40;92.00;;;;;;2081011;28;20211;-65
2021/03/29 02:04:08;;;;;;;2.63;1.17;;;4.40;91.00;;;;;;2080899;28;20716;-64
2021/03/29 02:05:14;;;;;;;2.83;1.40;;;4.40;90.00;;;;;;2081165;28;20185;-64
2021/03/29 02:06:16;;;;;;;2.08;1.10;;;4.50;88.50;;;;;;2080777;28;20221;-64
2021/03/29 02:07:18;;;;;;;1.45;1.00;;;4.50;86.40;;;;;;2080717;28;20173;-64
2021/03/29 02:08:20;;;;;;;2.75;1.40;;;4.70;81.80;;;;;;2072295;28;20195;-64
2021/03/29 02:09:23;;;;;;;2.35;1.40;;;4.70;82.80;;;;;;2080850;28;20212;-64
2021/03/29 02:10:27;;;;;;;3.10;1.20;;;4.80;76.60;;;;;;2080510;28;20677;-64
2021/03/29 02:11:29;;;;;;;1.88;1.10;;;4.90;77.10;;;;;;2072123;28;20242;-64
2021/03/29 02:12:30;;;;;;;3.33;1.40;;;4.90;74.00;;;;;;2072336;28;20182;-64
2021/03/29 02:13:35;;;;;;;4.07;1.20;;;5.10;72.20;;;;;;2072284;28;20544;-64
2021/03/29 02:14:37;;;;;;;2.55;1.23;;;5.10;72.90;;;;;;2064413;28;20191;-64
2021/03/29 02:15:38;;;;;;;2.10;1.10;;;5.10;72.90;;;;;;2064434;28;20744;-64
2021/03/29 02:16:39;;;;;;;2.45;1.00;;;5.10;73.10;;;;;;2080278;28;20182;-64
2021/03/29 02:17:42;;;;;;;2.45;1.20;;;5.10;71.60;;;;;;2081096;28;20877;-64
2021/03/29 02:18:45;;;;;;;2.70;1.15;;;5.10;71.90;;;;;;2080827;28;20180;-64
2021/03/29 02:19:46;;;;;;;1.80;1.10;;;5.00;71.70;;;;;;2080920;28;20544;-64
2021/03/29 02:20:49;;;;;;;2.35;1.20;;;5.10;70.30;;;;;;2071875;28;20217;-64
2021/03/29 02:21:51;;;;;;;2.78;1.20;;;5.00;70.60;;;;;;2072597;28;20702;-64
2021/03/29 02:22:54;;;;;;;2.45;1.20;;;5.00;70.70;;;;;;2080206;28;20181;-64
2021/03/29 02:23:57;;;;;;;1.83;1.25;;;5.00;70.90;;;;;;2081324;28;20180;-64
2021/03/29 02:24:58;;;;;;;3.53;1.45;;;5.00;71.60;;;;;;2081102;28;20312;-64
2021/03/29 02:26:01;;;;;;;1.88;1.10;;;5.00;71.10;;;;;;2080709;28;20268;-64
2021/03/29 02:27:02;;;;;;;1.67;1.02;;;4.90;70.40;;;;;;2080386;28;20181;-64
2021/03/29 02:28:05;;;;;;;1.63;1.08;;;4.90;71.10;;;;;;2081178;28;20288;-64
2021/03/29 02:29:07;;;;;;;2.45;1.33;;;4.90;71.90;;;;;;2080254;28;20190;-64
2021/03/29 02:30:15;;;;;;;2.13;1.30;;;4.90;68.80;;;;;;2080371;28;20172;-64
2021/03/29 02:31:18;;;;;;;3.38;1.70;;;4.90;69.80;;;;;;2079677;28;20193;-64
2021/03/29 02:32:18;;;;;;;2.60;1.50;;;4.90;68.50;;;;;;2080498;28;20173;-64
2021/03/29 02:33:20;;;;;;;2.13;1.50;;;4.90;68.60;;;;;;2072005;28;20736;-64
2021/03/29 02:34:22;;;;;;;2.72;1.80;;;4.90;69.40;;;;;;2064167;28;20176;-64
2021/03/29 02:35:24;;;;;;;3.80;1.70;;;4.80;69.30;;;;;;2080131;28;20177;-64
2021/03/29 02:36:25;;;;;;;1.90;1.40;;;4.80;68.40;;;;;;2080846;28;20179;-64
2021/03/29 02:37:26;;;;;;;1.88;1.60;;;4.80;68.90;;;;;;2088509;28;20185;-65
2021/03/29 02:38:27;;;;;;;3.07;1.30;;;4.80;67.90;;;;;;2088717;28;20238;-64
2021/03/29 02:39:28;;;;;;;3.67;1.50;;;4.90;64.10;;;;;;2081082;28;20599;-64
2021/03/29 02:40:28;;;;;;;2.27;1.60;;;5.00;68.80;;;;;;2081074;28;20762;-64
2021/03/29 02:41:31;;;;;;;3.53;1.50;;;4.90;65.40;;;;;;2080434;28;20202;-64
2021/03/29 02:42:33;;;;;;;1.80;1.10;;;4.90;61.90;;;;;;2080954;28;20588;-64
2021/03/29 02:43:35;;;;;;;1.80;1.10;;;5.00;60.10;;;;;;2077646;28;20270;-64
2021/03/29 02:44:37;;;;;;;1.90;1.23;;;5.00;59.90;;;;;;2080240;28;20557;-64
2021/03/29 02:45:43;;;;;;;3.35;1.30;;;5.10;59.30;;;;;;2080112;28;20240;-64
2021/03/29 02:46:50;;;;;;;1.80;1.30;;;5.10;59.10;;;;;;2080803;28;20158;-64
2021/03/29 02:47:53;;;;;;;3.25;1.23;;;5.10;59.00;;;;;;2080971;28;20192;-64
2021/03/29 02:48:58;;;;;;;1.58;1.15;;;5.10;58.70;;;;;;2080098;28;20190;-64
2021/03/29 02:50:00;;;;;;;1.95;1.10;;;5.10;58.30;;;;;;2072574;28;20184;-64
2021/03/29 02:51:06;;;;;;;1.23;1.10;;;5.00;58.60;;;;;;2071821;28;20183;-64
2021/03/29 02:52:07;;;;;;;1.95;1.33;;;5.00;60.20;;;;;;2080381;28;20194;-64
2021/03/29 02:53:32;;;;;;;1.30;1.00;;;5.00;60.30;;;;;;2080431;28;20178;-64
2021/03/29 02:54:33;;;;;;;1.65;1.10;;;5.00;60.20;;;;;;2079898;28;20579;-64
2021/03/29 02:55:35;;;;;;;1.55;1.33;;;4.90;61.80;;;;;;2081112;28;20245;-64
2021/03/29 02:56:41;;;;;;;2.30;1.20;;;5.00;59.40;;;;;;2080875;28;20178;-64
2021/03/29 02:57:46;;;;;;;1.92;1.15;;;4.90;59.80;;;;;;2081040;28;20165;-64
2021/03/29 02:59:00;;;;;;;2.03;1.20;;;4.90;61.30;;;;;;2081059;28;20169;-64
2021/03/29 03:00:03;;;;;;;2.90;1.30;;;4.90;60.20;;;;;;2081706;28;20162;-64
2021/03/29 03:01:08;;;;;;;1.73;1.20;;;5.00;58.40;;;;;;2081865;28;20189;-64
2021/03/29 03:02:09;;;;;;;3.15;1.20;;;5.00;58.90;;;;;;2073513;28;20226;-64
2021/03/29 03:03:12;;;;;;;2.93;1.30;;;5.10;57.70;;;;;;2073996;28;20188;-64
2021/03/29 03:04:15;;;;;;;1.55;1.08;;;5.10;58.10;;;;;;2081867;28;20175;-64
2021/03/29 03:05:19;;;;;;;2.25;1.10;;;5.10;57.90;;;;;;2074047;28;20270;-64
2021/03/29 03:06:22;;;;;;;1.65;1.30;;;5.00;59.00;;;;;;2074487;28;20273;-64
2021/03/29 03:07:23;;;;;;;3.35;1.20;;;5.00;58.60;;;;;;2082033;28;20240;-64
2021/03/29 03:08:24;;;;;;;3.13;1.03;;;5.00;57.60;;;;;;2082141;28;20185;-65
2021/03/29 03:09:25;;;;;;;3.03;1.30;;;5.10;56.30;;;;;;2082460;28;20173;-64
2021/03/29 03:10:28;;;;;;;1.97;1.20;;;5.10;59.10;;;;;;2081669;28;20179;-64
2021/03/29 03:11:30;;;;;;;1.73;1.17;;;5.00;58.20;;;;;;2081366;28;20248;-64
2021/03/29 03:12:31;;;;;;;2.45;1.20;;;5.00;57.30;;;;;;2081743;28;20237;-64
2021/03/29 03:13:32;;;;;;;1.80;1.30;;;5.00;56.50;;;;;;2073873;28;20248;-64
2021/03/29 03:14:33;;;;;;;1.38;1.27;;;5.00;58.00;;;;;;2081834;28;20802;-64
2021/03/29 03:15:36;;;;;;;3.15;1.17;;;5.00;57.10;;;;;;2082570;28;20661;-65
2021/03/29 03:16:39;;;;;;;2.42;1.20;;;5.00;57.00;;;;;;2082365;28;20181;-64
2021/03/29 03:17:40;;;;;;;1.50;1.30;;;4.90;57.10;;;;;;2082624;28;20174;-65
2021/03/29 03:18:42;;;;;;;3.13;1.30;;;4.90;57.10;;;;;;2081587;28;20740;-65
2021/03/29 03:19:42;;;;;;;1.80;1.27;;;4.80;57.30;;;;;;2073789;28;20304;-64
2021/03/29 03:20:43;;;;;;;2.77;1.10;;;4.90;57.20;;;;;;2081587;28;20209;-64
2021/03/29 03:21:44;;;;;;;1.93;1.10;;;4.80;57.80;;;;;;2081961;28;20190;-64
2021/03/29 03:22:55;;;;;;;1.53;1.17;;;4.80;57.70;;;;;;2081607;28;20173;-64
2021/03/29 03:23:57;;;;;;;1.75;1.27;;;4.80;57.70;;;;;;2075039;28;20170;-64
2021/03/29 03:24:58;;;;;;;1.17;1.00;;;4.70;59.40;;;;;;2073772;28;20224;-64
2021/03/29 03:26:00;;;;;;;2.27;1.30;;;4.70;59.20;;;;;;2073534;28;20205;-64
2021/03/29 03:27:09;;;;;;;2.65;1.10;;;4.70;59.30;;;;;;2081688;28;20239;-64
2021/03/29 03:28:13;;;;;;;3.33;1.27;;;4.70;59.60;;;;;;2082413;28;20166;-64
2021/03/29 03:29:14;;;;;;;2.55;1.30;;;4.60;61.70;;;;;;2082240;28;20173;-64
2021/03/29 03:30:28;;;;;;;1.63;1.13;;;4.60;61.40;;;;;;2081875;28;20185;-64
2021/03/29 03:31:29;;;;;;;2.30;1.30;;;4.50;61.80;;;;;;2081194;28;20236;-64
2021/03/29 03:32:29;;;;;;;2.05;1.27;;;4.50;61.20;;;;;;2082409;28;20184;-64
2021/03/29 03:33:30;;;;;;;1.63;1.27;;;4.40;61.20;;;;;;2081779;28;20714;-64
2021/03/29 03:34:31;;;;;;;1.40;1.20;;;4.40;63.50;;;;;;2081645;28;20183;-64
2021/03/29 03:35:33;;;;;;;2.07;1.20;;;4.30;65.10;;;;;;2082362;28;20644;-64
2021/03/29 03:36:36;;;;;;;2.75;1.30;;;4.30;70.40;;;;;;2082392;28;20264;-64
2021/03/29 03:37:38;;;;;;;1.63;1.00;;;4.20;75.00;;;;;;2081690;28;20189;-64
2021/03/29 03:38:43;;;;;;;3.20;1.38;;;4.10;75.80;;;;;;2073741;28;20178;-64
2021/03/29 03:39:46;;;;;;;1.23;1.00;;;4.00;78.10;;;;;;2081742;28;20192;-64
2021/03/29 03:40:54;;;;;;;1.83;1.08;;;4.00;78.00;;;;;;2081270;28;20180;-64
2021/03/29 03:41:55;;;;;;;2.55;1.27;;;3.90;79.30;;;;;;2081682;28;20204;-64
2021/03/29 03:43:01;;;;;;;2.63;1.15;;;3.90;78.80;;;;;;2082160;28;20694;-64
2021/03/29 03:44:03;;;;;;;2.13;1.45;;;3.80;88.60;;;;;;2081694;28;20241;-64
2021/03/29 03:45:07;;;;;;;3.08;1.52;;;3.70;82.20;;;;;;2081771;28;20675;-64
2021/03/29 03:46:14;;;;;;;2.80;1.30;;;3.70;77.40;;;;;;2081684;28;20739;-64
2021/03/29 03:47:16;;;;;;;1.90;1.25;;;3.70;80.10;;;;;;2081892;28;20180;-64
2021/03/29 03:48:18;;;;;;;3.10;2.13;;;3.60;84.40;;;;;;2081834;28;20215;-64
2021/03/29 03:49:22;;;;;;;1.92;1.33;;;3.50;91.00;;;;;;2081754;28;20178;-65
2021/03/29 03:50:24;;;;;;;2.20;1.20;;;3.50;91.80;;;;;;2081801;28;20567;-64
2021/03/29 03:51:26;;;;;;;2.88;1.65;;;3.50;91.50;;;;;;2073042;28;20557;-64
2021/03/29 03:52:27;;;;;;;1.20;1.10;;;3.50;93.80;;;;;;2073745;28;20279;-64
2021/03/29 03:53:29;;;;;;;2.28;1.10;;;3.40;95.60;;;;;;2073616;28;20178;-64
2021/03/29 03:54:29;;;;;;;1.83;1.20;;;3.30;96.90;;;;;;2073474;28;20186;-64
2021/03/29 03:55:31;;;;;;;1.70;1.60;;;3.20;98.00;;;;;;2073287;28;20239;-64
2021/03/29 03:56:34;;;;;;;1.80;1.40;;;3.20;97.40;;;;;;2073456;28;20185;-64
2021/03/29 03:57:37;;;;;;;1.50;1.10;;;3.10;98.50;;;;;;2081354;28;20565;-64
2021/03/29 03:58:39;;;;;;;1.50;1.17;;;3.10;97.30;;;;;;2081369;28;20200;-64
2021/03/29 03:59:41;;;;;;;3.30;1.25;;;3.00;98.30;;;;;;2073448;28;20265;-64
2021/03/29 04:00:41;;;;;;;2.60;1.20;;;3.00;99.00;;;;;;2064828;28;20278;-64
2021/03/29 04:02:07;;;;;;;2.57;1.30;;;2.90;99.30;;;;;;2072461;28;20295;-65
2021/03/29 04:03:09;;;;;;;1.98;1.05;;;2.90;99.70;;;;;;2081211;28;20343;-64
2021/03/29 04:04:10;;;;;;;1.13;1.02;;;2.80;99.90;;;;;;2081467;28;20680;-64
2021/03/29 04:05:15;;;;;;;2.70;1.30;;;2.70;99.90;;;;;;2081728;28;20193;-64
2021/03/29 04:06:16;;;;;;;1.88;1.15;;;2.70;99.90;;;;;;2081488;28;20394;-64
2021/03/29 04:07:17;;;;;;;1.93;1.33;;;2.60;99.90;;;;;;2081209;28;20184;-64
2021/03/29 04:08:18;;;;;;;1.53;1.20;;;2.60;99.90;;;;;;2082118;28;20592;-64
2021/03/29 04:09:21;;;;;;;3.90;1.20;;;2.50;99.90;;;;;;2082053;28;20323;-64
2021/03/29 04:10:26;;;;;;;1.70;1.20;;;2.50;99.90;;;;;;2081964;28;20239;-64
2021/03/29 04:11:28;;;;;;;3.75;1.33;;;2.50;99.90;;;;;;2081224;28;20306;-64
2021/03/29 04:12:29;;;;;;;1.92;1.10;;;2.50;99.90;;;;;;2081816;28;20184;-64
2021/03/29 04:13:30;;;;;;;3.50;1.53;;;2.40;99.90;;;;;;2081826;28;20565;-64
2021/03/29 04:14:31;;;;;;;1.83;1.30;;;2.40;99.90;;;;;;2082012;28;20199;-64
2021/03/29 04:15:32;;;;;;;2.20;1.40;;;2.40;99.90;;;;;;2081799;28;20268;-64
2021/03/29 04:16:32;;;;;;;1.67;1.13;;;2.40;99.90;;;;;;2081922;28;20216;-64
2021/03/29 04:17:33;;;;;;;4.63;1.57;;;2.40;99.90;;;;;;2081862;28;20180;-64
2021/03/29 04:18:35;;;;;;;1.50;1.40;;;2.40;99.90;;;;;;2081915;28;20814;-64
2021/03/29 04:19:36;;;;;;;4.53;1.50;;;2.40;99.90;;;;;;2081240;28;20256;-64
2021/03/29 04:20:37;;;;;;;2.50;1.30;;;2.40;99.90;;;;;;2081479;28;20253;-64
2021/03/29 04:21:37;;;;;;;2.50;1.40;;;2.40;99.90;;;;;;2081118;28;20200;-64
2021/03/29 04:22:38;;;;;;;1.47;1.20;;;2.30;99.90;;;;;;2081932;28;20176;-64
2021/03/29 04:23:39;;;;;;;7.37;1.60;;;2.30;99.90;;;;;;2081755;28;20541;-64
2021/03/29 04:24:40;;;;;;;2.30;1.57;;;2.20;99.90;;;;;;2081991;28;20844;-64
2021/03/29 04:25:41;;;;;;;2.77;1.60;;;2.20;99.90;;;;;;2081719;28;20260;-64
2021/03/29 04:26:42;;;;;;;2.85;1.65;;;2.10;99.90;;;;;;2082003;28;20186;-64
2021/03/29 04:27:42;;;;;;;1.57;1.37;;;2.10;99.90;;;;;;2081794;28;20673;-64
2021/03/29 04:28:43;;;;;;;2.10;1.53;;;2.10;99.90;;;;;;2081076;28;20184;-64
2021/03/29 04:29:44;;;;;;;1.87;1.50;;;2.00;99.90;;;;;;2081143;28;20173;-64
2021/03/29 04:30:45;;;;;;;2.73;1.57;;;2.00;99.90;;;;;;2081744;28;20191;-64
2021/03/29 04:31:46;;;;;;;2.00;1.30;;;2.00;99.90;;;;;;2081165;28;20193;-64
2021/03/29 04:32:48;;;;;;;2.47;1.30;;;2.00;99.90;;;;;;2081924;28;20224;-64
2021/03/29 04:33:49;;;;;;;3.17;1.40;;;2.00;99.90;;;;;;2081675;28;20184;-64
2021/03/29 04:34:50;;;;;;;2.23;1.40;;;1.90;99.90;;;;;;2081778;28;20177;-64
2021/03/29 04:35:51;;;;;;;3.37;1.60;;;1.90;99.90;;;;;;2081782;28;20180;-64
2021/03/29 04:36:52;;;;;;;2.40;1.63;;;1.90;99.90;;;;;;2081990;28;20212;-64
2021/03/29 04:37:55;;;;;;;3.30;1.57;;;1.80;99.90;;;;;;2080971;28;20173;-64
2021/03/29 04:38:55;;;;;;;4.05;1.50;;;1.80;99.90;;;;;;2081146;28;20231;-64
2021/03/29 04:39:56;;;;;;;3.17;1.63;;;1.70;99.90;;;;;;2081473;28;20208;-64
2021/03/29 04:40:57;;;;;;;4.97;1.87;;;1.70;99.90;;;;;;2081292;28;20200;-64
2021/03/29 04:41:58;;;;;;;2.08;1.63;;;1.60;99.90;;;;;;2082096;28;20283;-64
2021/03/29 04:42:59;;;;;;;4.23;1.80;;;1.60;99.90;;;;;;2082066;28;20188;-64
2021/03/29 04:43:59;;;;;;;2.47;1.40;;;1.60;99.90;;;;;;2082006;28;20185;-64
2021/03/29 04:45:00;;;;;;;2.27;1.57;;;1.50;99.90;;;;;;2081732;28;20648;-64
2021/03/29 04:46:01;;;;;;;1.92;1.50;;;1.50;99.90;;;;;;2081803;28;20235;-64
2021/03/29 04:47:02;;;;;;;3.73;1.67;;;1.50;99.90;;;;;;2081998;28;20192;-64
2021/03/29 04:48:04;;;;;;;2.80;1.83;;;1.50;99.90;;;;;;2082072;28;20187;-64
2021/03/29 04:49:04;;;;;;;2.60;1.70;;;1.40;99.90;;;;;;2081855;28;20643;-64
2021/03/29 04:50:08;;;;;;;2.53;1.70;;;1.40;99.90;;;;;;2082082;28;20183;-64
2021/03/29 04:51:08;;;;;;;4.95;1.50;;;1.40;99.90;;;;;;2081118;28;20506;-65
2021/03/29 04:52:09;;;;;;;1.67;1.50;;;1.40;99.90;;;;;;2082084;28;20254;-64
2021/03/29 04:53:10;;;;;;;1.90;1.37;;;1.40;99.90;;;;;;2081714;28;20219;-64
2021/03/29 04:54:11;;;;;;;1.40;1.30;;;1.40;99.90;;;;;;2081864;28;20180;-64
2021/03/29 04:55:14;;;;;;;2.37;1.43;;;1.40;99.90;;;;;;2081796;28;20192;-64
2021/03/29 04:56:15;;;;;;;2.85;1.50;;;1.40;99.90;;;;;;2081143;28;20632;-64
2021/03/29 04:57:16;;;;;;;3.43;1.60;;;1.30;99.90;;;;;;2079167;28;20196;-64
2021/03/29 04:58:16;;;;;;;2.20;1.30;;;1.30;99.90;;;;;;2081310;28;20287;-64
2021/03/29 04:59:17;;;;;;;2.83;1.40;;;1.30;99.90;;;;;;2081174;28;20212;-64
2021/03/29 05:00:18;;;;;;;3.83;1.70;;;1.30;99.90;;;;;;2081951;28;20540;-64
2021/03/29 05:01:19;;;;;;;3.42;1.38;;;1.30;99.90;;;;;;2080598;28;20184;-64
2021/03/29 05:02:19;;;;;;;2.93;1.47;;;1.30;99.90;;;;;;2081997;28;20508;-64
2021/03/29 05:03:20;;;;;;;1.63;1.20;;;1.30;99.90;;;;;;2081510;28;20183;-64
2021/03/29 05:04:21;;;;;;;2.10;1.40;;;1.30;99.90;;;;;;2081981;28;20218;-64
2021/03/29 05:05:22;;;;;;;2.87;1.70;;;1.30;99.90;;;;;;2081753;28;20216;-64
2021/03/29 05:06:22;;;;;;;2.13;1.47;;;1.30;99.90;;;;;;2081768;28;20215;-64
2021/03/29 05:07:23;;;;;;;3.30;1.57;;;1.30;99.90;;;;;;2081637;28;20274;-64
2021/03/29 05:08:24;;;;;;;2.00;1.63;;;1.30;99.90;;;;;;2081776;28;20184;-64
2021/03/29 05:09:24;;;;;;;2.40;1.80;;;1.20;99.90;;;;;;2081155;28;20215;-64
2021/03/29 05:10:25;;;;;;;4.27;3.00;;;1.20;99.90;;;;;;2081179;28;20634;-64
2021/03/29 05:11:33;;;;;;;4.57;2.00;;;1.20;99.90;;;;;;2080532;28;20187;-64
2021/03/29 05:12:34;;;;;;;3.75;1.40;;;1.10;99.90;;;;;;2081365;28;20168;-64
2021/03/29 05:13:34;;;;;;;2.03;1.53;;;1.10;99.90;;;;;;2081835;28;20651;-64
2021/03/29 05:14:37;;;;;;;4.30;2.50;;;1.10;99.90;;;;;;2081857;28;20177;-64
2021/03/29 05:15:38;;;;;;;4.10;2.15;;;1.10;99.90;;;;;;2080883;28;20662;-64
2021/03/29 05:16:38;;;;;;;3.03;1.90;;;1.10;99.90;;;;;;2081269;28;20200;-64
2021/03/29 05:17:39;;;;;;;4.53;2.40;;;1.10;99.90;;;;;;2080729;28;20194;-64
2021/03/29 05:18:40;;;;;;;5.63;3.33;;;1.10;99.90;;;;;;2081370;28;20258;-64
2021/03/29 05:19:41;;;;;;;9.97;5.43;;;1.10;99.90;;;;;;2081554;28;20544;-64
2021/03/29 05:20:41;;;;;;;9.90;5.37;;;1.10;99.90;;;;;;2081638;28;20211;-64
2021/03/29 05:21:42;;;;;;;7.10;3.43;;;1.20;99.90;;;;;;2080756;28;20204;-64
2021/03/29 05:22:43;;;;;;;9.80;3.60;;;1.20;99.90;;;;;;2081046;28;20169;-64
2021/03/29 05:23:43;;;;;;;9.23;3.30;;;1.30;99.90;;;;;;2081593;28;20173;-64
2021/03/29 05:24:44;;;;;;;4.67;3.10;;;1.30;99.90;;;;;;2083863;28;20180;-64
2021/03/29 05:25:45;;;;;;;8.80;3.63;;;1.30;99.90;;;;;;2083461;28;20592;-64
2021/03/29 05:26:45;;;;;;;5.67;3.60;;;1.30;99.90;;;;;;2083783;28;20198;-64
2021/03/29 05:27:46;;;;;;;4.63;2.67;;;1.30;99.90;;;;;;2082332;28;20235;-64
2021/03/29 05:28:47;;;;;;;7.27;3.10;;;1.30;99.90;;;;;;2082367;28;20181;-64
2021/03/29 05:29:47;;;;;;;6.53;2.50;;;1.30;99.90;;;;;;2081615;28;20180;-64
2021/03/29 05:30:48;;;;;;;8.23;3.43;;;1.20;99.90;;;;;;2081350;28;20241;-64
2021/03/29 05:31:49;;;;;;;4.73;3.00;;;1.20;99.90;;;;;;2081209;28;20203;-64